Aérodrome :
LOGIN :

S'inscrire | Disclaimer

   EN    FR    IT 

 










Légende :    VFR   VFR Marginal   IFR   IFR Intensif   IFR Très Intensif
Visi : 
Plafond : 
>= 8 km
>= 3000ft
5 à 8 km
1000 à 3000 ft
1500m à 5 km
500 à 1000 ft
800 à 1500m
200 à 500 ft
< 800m
< 200 ft
Symboles :   Orages  Brouillard  Fortes neiges  Fortes précipitations  Vent > 20 kt
SIGMETs :   Divers  Orages  Givrage  Turbulence  Onde Orograph.  Cendres Volcan.






- Altitude de l'aérodrome : 607 ft
- Code IATA : BCM


LRBC - Bacău

DERNIER METAR :
  • 092030Z 22002KT 3000 0800S R34/0400N BR PRFG NSC M01/M01 Q1010

METARs EXPIRÉS :
  • 092000Z VRB02KT 2000 0800S R34/1500D BR PRFG NSC M01/M01 Q1010
  • 091930Z 22002KT 0800 R34/0900D FZFG NSC M01/M01 Q1010
  • 091900Z 17003KT 4000 1500S BR NSC M00/M01 Q1010
  • 091830Z 18004KT 5000 BR NSC M00/M00 Q1010
  • 091800Z 21003KT 5000 BR NSC 00/00 Q1010

TAF TAF LRBC
Valide du 09 à 21h jusqu'au 10 à 06h UTC


092000Z 0921/1006 VRB04KT 1500 BR NSC
BECMG 0921/0923 0600 FZFG BKN002
TEMPO 1001/1006 0300 FZFG OVC001



MET'MAP, la Météo Aéronautique d'un coup d'oeil ! - Copyright ORBIFLY Décembre 2007 - Disclaimer

ORBIFLY MET'MAP TEAM :

Programmation & Développement : Alexandra Zaïnal
Sur une idée originale de : Baudouin d'Aumeries
Assistance à la programmation : Marc-Olivier Méhu
Soutien technique & logistique : Manuel Goepfert

Contact : metmap@orbifly.com




SOURCES & CREDITS :

   NOAA